createdAt,value
2022-09-09T00:02:25.442Z,16.85
2022-09-09T00:05:39.715Z,16.84
2022-09-09T00:08:53.578Z,16.83
2022-09-09T00:12:07.390Z,16.78
2022-09-09T00:15:18.043Z,16.77
2022-09-09T00:18:32.595Z,16.74
2022-09-09T00:21:40.904Z,16.69
2022-09-09T00:24:50.110Z,16.67
2022-09-09T00:27:59.159Z,16.67
2022-09-09T00:31:17.043Z,16.64
2022-09-09T00:34:27.367Z,16.63
2022-09-09T00:37:36.320Z,16.61
2022-09-09T00:40:50.035Z,16.61
2022-09-09T00:44:07.399Z,16.62
2022-09-09T00:47:31.389Z,16.61
2022-09-09T00:50:51.021Z,16.57
2022-09-09T00:54:20.032Z,16.53
2022-09-09T00:57:32.381Z,16.55
2022-09-09T01:00:46.154Z,16.57
2022-09-09T01:04:00.712Z,16.58
2022-09-09T01:07:17.555Z,16.65
2022-09-09T01:10:33.272Z,16.71
2022-09-09T01:13:40.547Z,16.76
2022-09-09T01:16:52.810Z,16.80
2022-09-09T01:20:08.630Z,16.83
2022-09-09T01:23:50.599Z,16.86
2022-09-09T01:27:10.183Z,16.85
2022-09-09T01:30:20.211Z,16.84
2022-09-09T01:33:26.940Z,16.84
2022-09-09T01:36:39.693Z,16.85
2022-09-09T01:39:48.947Z,16.81
2022-09-09T01:43:00.879Z,16.79
2022-09-09T01:46:08.706Z,16.73
2022-09-09T01:49:17.132Z,16.67
2022-09-09T01:52:23.389Z,16.60
2022-09-09T01:55:34.353Z,16.50
2022-09-09T01:58:55.345Z,16.43
2022-09-09T02:02:14.274Z,16.38
2022-09-09T02:05:35.813Z,16.33
2022-09-09T02:08:50.146Z,16.28
2022-09-09T02:12:03.520Z,16.29
2022-09-09T02:15:33.925Z,16.27
2022-09-09T02:18:46.913Z,16.24
2022-09-09T02:21:55.298Z,16.20
2022-09-09T02:25:04.266Z,16.20
2022-09-09T02:28:13.990Z,16.21
2022-09-09T02:31:24.318Z,16.20
2022-09-09T02:34:37.332Z,16.18
2022-09-09T02:37:47.245Z,16.15
2022-09-09T02:40:55.419Z,16.11
2022-09-09T02:44:03.551Z,16.08
2022-09-09T02:47:31.758Z,16.06
2022-09-09T02:50:55.205Z,16.02
2022-09-09T02:54:11.743Z,15.96
2022-09-09T02:57:23.647Z,15.93
2022-09-09T03:00:32.547Z,15.93
2022-09-09T03:03:45.421Z,15.91
2022-09-09T03:06:55.873Z,15.89
2022-09-09T03:10:04.347Z,15.92
2022-09-09T03:13:11.147Z,15.89
2022-09-09T03:16:19.159Z,15.84
2022-09-09T03:19:32.493Z,15.82
2022-09-09T03:22:39.328Z,15.80
2022-09-09T03:25:51.200Z,15.81
2022-09-09T03:29:03.751Z,15.78
2022-09-09T03:32:11.920Z,15.76
2022-09-09T03:35:21.531Z,15.73
2022-09-09T03:38:29.704Z,15.64
2022-09-09T03:41:35.585Z,15.60
2022-09-09T03:44:43.116Z,15.56
2022-09-09T03:47:50.285Z,15.54
2022-09-09T03:51:04.029Z,15.50
2022-09-09T03:54:11.830Z,15.44
2022-09-09T03:57:19.519Z,15.41
2022-09-09T04:00:25.492Z,15.40
2022-09-09T04:03:34.065Z,15.37
2022-09-09T04:06:43.350Z,15.34
2022-09-09T04:09:50.874Z,15.31
2022-09-09T04:12:57.827Z,15.28
2022-09-09T04:16:06.721Z,15.29
2022-09-09T04:19:14.903Z,15.30
2022-09-09T04:22:26.167Z,15.26
2022-09-09T04:25:34.298Z,15.25
2022-09-09T04:28:41.655Z,15.25
2022-09-09T04:31:55.394Z,15.23
2022-09-09T04:35:03.790Z,15.26
2022-09-09T04:38:12.686Z,15.28
2022-09-09T04:41:20.753Z,15.30
2022-09-09T04:44:29.796Z,15.31
2022-09-09T04:47:37.166Z,15.36
2022-09-09T04:50:44.109Z,15.39
2022-09-09T04:53:55.717Z,15.44
2022-09-09T04:57:03.511Z,15.48
2022-09-09T05:00:12.495Z,15.53
2022-09-09T05:03:20.493Z,15.59
2022-09-09T05:06:27.895Z,15.63
2022-09-09T05:09:40.577Z,15.66
2022-09-09T05:12:55.816Z,15.70
2022-09-09T05:16:07.229Z,15.74
2022-09-09T05:19:14.509Z,15.78
2022-09-09T05:22:27.651Z,15.80
2022-09-09T05:25:37.395Z,15.83
2022-09-09T05:28:45.395Z,15.83
2022-09-09T05:31:52.663Z,15.85
2022-09-09T05:35:00.697Z,15.88
2022-09-09T05:38:09.583Z,15.90
2022-09-09T05:41:19.648Z,15.94
2022-09-09T05:44:28.828Z,15.96
2022-09-09T05:47:34.825Z,15.98
2022-09-09T05:50:41.766Z,16.03
2022-09-09T05:53:49.049Z,16.07
2022-09-09T05:56:58.696Z,16.12
2022-09-09T06:00:07.023Z,16.11
2022-09-09T06:03:24.778Z,16.10
2022-09-09T06:06:38.027Z,16.16
2022-09-09T06:09:51.792Z,16.27
2022-09-09T06:13:00.429Z,16.37
2022-09-09T06:16:10.301Z,16.47
2022-09-09T06:19:16.558Z,16.58
2022-09-09T06:22:23.434Z,16.69
2022-09-09T06:25:29.831Z,16.78
2022-09-09T06:28:40.513Z,16.88
2022-09-09T06:31:46.705Z,16.97
2022-09-09T06:34:56.437Z,17.05
2022-09-09T06:38:03.751Z,17.07
2022-09-09T06:41:13.478Z,17.13
2022-09-09T06:44:24.336Z,17.17
2022-09-09T06:47:34.881Z,17.21
2022-09-09T06:50:41.231Z,17.27
2022-09-09T06:53:50.321Z,17.32
2022-09-09T06:56:56.793Z,17.42
2022-09-09T07:00:12.547Z,17.50
2022-09-09T07:03:19.814Z,17.54
2022-09-09T07:06:28.568Z,17.62
2022-09-09T07:09:34.464Z,17.66
2022-09-09T07:12:41.467Z,17.69
2022-09-09T07:15:52.751Z,17.73
2022-09-09T07:19:03.553Z,17.69
2022-09-09T07:22:10.038Z,17.72
2022-09-09T07:25:19.171Z,17.81
2022-09-09T07:28:27.505Z,17.87
2022-09-09T07:31:39.411Z,17.89
2022-09-09T07:34:51.431Z,17.97
2022-09-09T07:37:59.499Z,18.09
2022-09-09T07:41:12.824Z,18.28
2022-09-09T07:44:22.763Z,18.45
2022-09-09T07:47:42.448Z,18.48
2022-09-09T07:50:49.649Z,18.47
2022-09-09T07:53:58.945Z,18.57
2022-09-09T07:57:07.701Z,18.81
2022-09-09T08:00:17.294Z,18.92
2022-09-09T08:03:31.939Z,18.95
2022-09-09T08:06:41.893Z,19.22
2022-09-09T08:09:50.542Z,19.47
2022-09-09T08:13:19.709Z,19.86
2022-09-09T08:16:31.199Z,19.84
2022-09-09T08:19:41.073Z,19.88
2022-09-09T08:22:53.321Z,19.94
2022-09-09T08:25:59.572Z,19.99
2022-09-09T08:29:08.962Z,20.17
2022-09-09T08:32:14.803Z,20.29
2022-09-09T08:35:24.445Z,20.34
2022-09-09T08:38:30.671Z,20.32
2022-09-09T08:42:07.823Z,20.56
2022-09-09T08:45:54.179Z,20.79
2022-09-09T08:49:07.036Z,21.02
2022-09-09T08:52:26.043Z,21.23
2022-09-09T08:55:44.055Z,21.32
2022-09-09T08:58:52.982Z,21.31
2022-09-09T09:02:29.879Z,21.37
2022-09-09T09:05:42.621Z,21.51
2022-09-09T09:09:04.537Z,21.71
2022-09-09T09:12:20.231Z,21.86
2022-09-09T09:15:32.158Z,21.84
2022-09-09T09:18:38.965Z,21.92
2022-09-09T09:21:52.039Z,22.02
2022-09-09T09:25:11.827Z,22.07
2022-09-09T09:28:28.588Z,22.24
2022-09-09T09:31:40.035Z,22.37
2022-09-09T09:34:52.416Z,22.34
2022-09-09T09:41:40.191Z,22.37
2022-09-09T09:44:48.163Z,22.56
2022-09-09T09:48:08.062Z,22.60
2022-09-09T09:51:20.542Z,22.47
2022-09-09T09:54:32.971Z,22.48
2022-09-09T09:57:45.958Z,22.48
2022-09-09T10:00:55.718Z,22.33
2022-09-09T10:04:21.443Z,22.34
2022-09-09T10:07:31.195Z,22.18
2022-09-09T10:11:00.201Z,22.18
2022-09-09T10:14:23.579Z,22.29
2022-09-09T10:17:39.835Z,22.54
2022-09-09T10:20:55.405Z,22.59
2022-09-09T10:24:22.125Z,22.49
2022-09-09T10:27:38.140Z,22.56
2022-09-09T10:30:59.480Z,22.47
2022-09-09T10:34:23.075Z,22.38
2022-09-09T10:37:45.539Z,22.21
2022-09-09T10:41:20.751Z,22.19
2022-09-09T10:44:38.533Z,22.37
2022-09-09T10:48:10.339Z,22.32
2022-09-09T10:51:37.359Z,22.16
2022-09-09T10:54:58.366Z,22.35
2022-09-09T10:58:07.843Z,22.39
2022-09-09T11:01:20.197Z,22.42
2022-09-09T11:04:36.862Z,22.23
2022-09-09T11:07:47.301Z,22.09
2022-09-09T11:10:58.027Z,22.08
2022-09-09T11:14:09.782Z,22.08
2022-09-09T11:17:20.913Z,22.04
2022-09-09T11:20:30.748Z,22.07
2022-09-09T11:23:45.105Z,22.27
2022-09-09T11:26:56.163Z,22.52
2022-09-09T11:34:09.659Z,22.70
2022-09-09T11:37:39.314Z,22.73
2022-09-09T11:40:46.147Z,22.77
2022-09-09T11:43:55.122Z,22.69
2022-09-09T11:47:03.520Z,22.63
2022-09-09T11:50:33.328Z,22.76
2022-09-09T11:53:52.738Z,22.96
2022-09-09T11:56:58.651Z,22.93
2022-09-09T12:00:08.541Z,22.87
2022-09-09T12:03:46.606Z,22.78
2022-09-09T12:06:57.836Z,22.54
2022-09-09T12:10:09.388Z,22.54
2022-09-09T12:13:21.276Z,22.59
2022-09-09T12:16:37.731Z,22.72
2022-09-09T12:19:44.808Z,22.78
2022-09-09T12:23:17.320Z,22.91
2022-09-09T12:26:35.719Z,22.94
2022-09-09T12:29:51.906Z,23.01
2022-09-09T12:33:06.590Z,23.08
2022-09-09T12:36:17.813Z,23.02
2022-09-09T12:39:32.211Z,22.96
2022-09-09T12:42:45.014Z,23.00
2022-09-09T12:45:58.900Z,23.12
2022-09-09T12:49:07.710Z,23.19
2022-09-09T12:52:22.607Z,23.23
2022-09-09T12:55:32.114Z,23.19
2022-09-09T12:58:43.676Z,23.21
2022-09-09T13:01:59.916Z,23.20
2022-09-09T13:05:20.727Z,23.16
2022-09-09T13:08:28.458Z,23.18
2022-09-09T13:11:40.238Z,23.13
2022-09-09T13:14:52.521Z,23.22
2022-09-09T13:18:03.543Z,23.29
2022-09-09T13:21:09.855Z,23.38
2022-09-09T13:24:31.351Z,23.42
2022-09-09T13:27:40.120Z,23.34
2022-09-09T13:31:04.327Z,23.39
2022-09-09T13:34:17.303Z,23.32
2022-09-09T13:37:28.844Z,23.30
2022-09-09T13:40:35.685Z,23.34
2022-09-09T13:43:48.557Z,23.43
2022-09-09T13:47:10.789Z,23.54
2022-09-09T13:50:25.239Z,23.57
2022-09-09T13:53:31.740Z,23.58
2022-09-09T13:56:38.783Z,23.69
2022-09-09T14:00:03.624Z,23.81
2022-09-09T14:03:15.241Z,23.74
2022-09-09T14:06:23.082Z,23.83
2022-09-09T14:09:29.837Z,23.93
2022-09-09T14:12:35.618Z,23.82
2022-09-09T14:15:42.772Z,23.77
2022-09-09T14:18:52.042Z,23.77
2022-09-09T14:21:58.742Z,23.80
2022-09-09T14:25:07.337Z,23.89
2022-09-09T14:28:16.334Z,23.95
2022-09-09T14:31:22.194Z,23.80
2022-09-09T14:34:33.560Z,23.81
2022-09-09T14:37:40.879Z,23.87
2022-09-09T14:40:49.887Z,23.94
2022-09-09T14:43:55.859Z,23.99
2022-09-09T14:47:04.102Z,23.87
2022-09-09T14:50:15.773Z,23.68
2022-09-09T14:53:22.967Z,23.59
2022-09-09T14:56:31.217Z,23.48
2022-09-09T14:59:38.105Z,23.46
2022-09-09T15:02:44.294Z,23.43
2022-09-09T15:05:53.914Z,23.42
2022-09-09T15:09:03.550Z,23.46
2022-09-09T15:12:11.029Z,23.47
2022-09-09T15:15:17.528Z,23.44
2022-09-09T15:18:24.455Z,23.42
2022-09-09T15:21:34.617Z,23.33
2022-09-09T15:24:41.416Z,23.15
2022-09-09T15:27:47.428Z,23.01
2022-09-09T15:30:54.675Z,22.90
2022-09-09T15:34:04.029Z,22.81
2022-09-09T15:37:14.898Z,22.80
2022-09-09T15:40:20.925Z,22.80
2022-09-09T15:43:27.540Z,22.82
2022-09-09T15:46:37.210Z,22.78
2022-09-09T15:49:44.081Z,22.69
2022-09-09T15:52:54.141Z,22.61
2022-09-09T15:56:01.112Z,22.46
2022-09-09T15:59:08.572Z,22.33
2022-09-09T16:02:15.355Z,22.23
2022-09-09T16:05:24.001Z,22.11
2022-09-09T16:08:38.728Z,22.09
2022-09-09T16:11:44.562Z,22.06
2022-09-09T16:14:51.283Z,21.98
2022-09-09T16:17:57.786Z,21.93
2022-09-09T16:21:07.193Z,21.87
2022-09-09T16:24:19.211Z,21.82
2022-09-09T16:27:26.003Z,21.75
2022-09-09T16:30:31.901Z,21.69
2022-09-09T16:33:38.990Z,21.64
2022-09-09T16:36:46.971Z,21.57
2022-09-09T16:39:56.681Z,21.50
2022-09-09T16:43:03.677Z,21.41
2022-09-09T16:46:19.459Z,21.33
2022-09-09T16:49:25.800Z,21.23
2022-09-09T16:52:32.789Z,21.14
2022-09-09T16:55:45.514Z,21.04
2022-09-09T16:58:55.451Z,20.90
2022-09-09T17:02:03.858Z,20.80
2022-09-09T17:05:11.102Z,20.70
2022-09-09T17:08:17.893Z,20.58
2022-09-09T17:11:27.998Z,20.48
2022-09-09T17:14:35.204Z,20.38
2022-09-09T17:17:45.393Z,20.27
2022-09-09T17:20:51.202Z,20.17
2022-09-09T17:23:59.362Z,20.08
2022-09-09T17:27:10.206Z,19.99
2022-09-09T17:30:17.828Z,19.90
2022-09-09T17:33:24.412Z,19.79
2022-09-09T17:36:33.473Z,19.70
2022-09-09T17:39:39.642Z,19.60
2022-09-09T17:42:49.308Z,19.51
2022-09-09T17:45:55.253Z,19.42
2022-09-09T17:49:04.039Z,19.34
2022-09-09T17:52:09.993Z,19.30
2022-09-09T17:55:17.226Z,19.22
2022-09-09T17:58:25.780Z,19.16
2022-09-09T18:01:35.613Z,19.09
2022-09-09T18:04:43.094Z,19.01
2022-09-09T18:07:49.738Z,18.97
2022-09-09T18:10:57.025Z,18.96
2022-09-09T18:14:10.829Z,18.95
2022-09-09T18:17:16.623Z,18.92
2022-09-09T18:20:24.216Z,18.88
2022-09-09T18:23:30.306Z,18.82
2022-09-09T18:26:39.610Z,18.87
2022-09-09T18:29:48.419Z,18.89
2022-09-09T18:32:55.322Z,18.90
2022-09-09T18:36:10.085Z,18.92
2022-09-09T18:39:19.777Z,18.91
2022-09-09T18:42:26.823Z,18.88
2022-09-09T18:45:38.918Z,18.83
2022-09-09T18:48:46.420Z,18.80
2022-09-09T18:51:53.598Z,18.76
2022-09-09T18:54:59.404Z,18.73
2022-09-09T18:58:07.237Z,18.71
2022-09-09T19:01:17.754Z,18.70
2022-09-09T19:04:26.353Z,18.69
2022-09-09T19:07:32.287Z,18.68
2022-09-09T19:10:39.763Z,18.66
2022-09-09T19:13:46.231Z,18.65
2022-09-09T19:16:56.606Z,18.64
2022-09-09T19:20:03.792Z,18.62
2022-09-09T19:23:10.447Z,18.61
2022-09-09T19:26:17.339Z,18.61
2022-09-09T19:29:25.350Z,18.61
2022-09-09T19:32:52.772Z,18.62
2022-09-09T19:36:03.555Z,18.59
2022-09-09T19:39:10.769Z,18.61
2022-09-09T19:42:17.492Z,18.61
2022-09-09T19:45:23.356Z,18.61
2022-09-09T19:48:33.632Z,18.61
2022-09-09T19:51:39.790Z,18.60
2022-09-09T19:54:46.960Z,18.61
2022-09-09T19:57:52.827Z,18.62
2022-09-09T20:00:59.482Z,18.61
2022-09-09T20:04:11.097Z,18.60
2022-09-09T20:07:19.353Z,18.57
2022-09-09T20:10:25.380Z,18.54
2022-09-09T20:13:33.518Z,18.52
2022-09-09T20:16:39.584Z,18.49
2022-09-09T20:19:49.348Z,18.47
2022-09-09T20:22:55.374Z,18.42
2022-09-09T20:26:07.901Z,18.39
2022-09-09T20:29:18.914Z,18.37
2022-09-09T20:32:26.124Z,18.33
2022-09-09T20:35:36.826Z,18.31
2022-09-09T20:38:47.569Z,18.28
2022-09-09T20:41:53.882Z,18.24
2022-09-09T20:45:00.625Z,18.21
2022-09-09T20:48:08.432Z,18.17
2022-09-09T20:51:19.943Z,18.16
2022-09-09T20:54:29.373Z,18.13
2022-09-09T20:57:36.147Z,18.10
2022-09-09T21:00:42.431Z,18.09
2022-09-09T21:03:49.083Z,18.07
2022-09-09T21:06:57.699Z,18.07
2022-09-09T21:10:04.298Z,18.06
2022-09-09T21:13:10.453Z,18.06
2022-09-09T21:16:19.847Z,18.06
2022-09-09T21:19:25.822Z,18.05
2022-09-09T21:22:35.670Z,18.06
2022-09-09T21:25:41.740Z,18.06
2022-09-09T21:28:48.480Z,18.04
2022-09-09T21:31:56.149Z,18.02
2022-09-09T21:35:03.567Z,17.99
2022-09-09T21:38:15.593Z,17.98
2022-09-09T21:41:22.707Z,17.95
2022-09-09T21:44:28.773Z,17.93
2022-09-09T21:47:35.482Z,17.90
2022-09-09T21:50:43.300Z,17.88
2022-09-09T21:53:52.727Z,17.86
2022-09-09T21:56:58.771Z,17.85
2022-09-09T22:00:12.698Z,17.84
2022-09-09T22:03:19.099Z,17.83
2022-09-09T22:06:25.801Z,17.82
2022-09-09T22:09:34.423Z,17.81
2022-09-09T22:12:41.306Z,17.79
2022-09-09T22:15:48.844Z,17.78
2022-09-09T22:18:57.974Z,17.76
2022-09-09T22:22:04.400Z,17.72
2022-09-09T22:25:15.000Z,17.69
2022-09-09T22:28:22.367Z,17.68
2022-09-09T22:31:30.522Z,17.66
2022-09-09T22:34:36.696Z,17.64
2022-09-09T22:37:43.657Z,17.61
2022-09-09T22:40:52.899Z,17.61
2022-09-09T22:43:59.809Z,17.58
2022-09-09T22:47:07.991Z,17.55
2022-09-09T22:50:14.593Z,17.54
2022-09-09T22:53:21.773Z,17.54
2022-09-09T22:56:31.205Z,17.57
2022-09-09T22:59:37.657Z,17.56
2022-09-09T23:02:44.822Z,17.57
2022-09-09T23:05:57.905Z,17.58
2022-09-09T23:09:06.618Z,17.59
2022-09-09T23:12:19.039Z,17.62
2022-09-09T23:15:25.686Z,17.63
2022-09-09T23:18:33.811Z,17.64
2022-09-09T23:21:42.163Z,17.66
2022-09-09T23:24:47.921Z,17.68
2022-09-09T23:27:57.569Z,17.67
2022-09-09T23:31:03.542Z,17.68
2022-09-09T23:34:10.513Z,17.72
2022-09-09T23:37:16.868Z,17.78
2022-09-09T23:40:23.552Z,17.79
2022-09-09T23:43:32.351Z,17.71
2022-09-09T23:46:39.295Z,17.61
2022-09-09T23:49:45.145Z,17.50
2022-09-09T23:52:52.504Z,17.39
2022-09-09T23:55:59.589Z,17.33
2022-09-09T23:59:10.722Z,17.20
